Monte Alegre De Sergipe, Brazil
Current Conditions -  °F | °C
As of 9:00 AM on Monday 24 Nov 2014 (Local Time) from SBAR Reporting Station
Scattered Clouds Scattered Clouds  
Wind Chill: 82°   Ceiling: Unl
Heat Index: 86°   Visibility: 6mi
Dew Point: 70°   Wind: 12mph
Humidity: 66%   Direction: 90°E
Pressure: 30"   Gusts: NA
Location:  10.03°S, 37.55°W
Report Text: SBAR 241200Z 09010KT 9999 SCT015 28/21 Q1016
Loading
Personal Weather Stations






























Interactive Weather Map New forecast layout! Learn more

10-Day Weather Forecast

Advertisements
Track Severe Weather on mobile